createdAt,value
2023-05-23T00:01:49.744Z,16.23
2023-05-23T00:04:20.532Z,16.23
2023-05-23T00:06:50.740Z,16.23
2023-05-23T00:09:18.327Z,16.20
2023-05-23T00:11:45.703Z,16.09
2023-05-23T00:14:16.152Z,16.15
2023-05-23T00:16:45.202Z,16.11
2023-05-23T00:19:15.284Z,16.09
2023-05-23T00:21:48.650Z,16.03
2023-05-23T00:24:18.865Z,16.03
2023-05-23T00:26:46.832Z,16.01
2023-05-23T00:29:16.618Z,16.01
2023-05-23T00:31:47.727Z,15.94
2023-05-23T00:34:17.976Z,15.87
2023-05-23T00:36:48.157Z,15.74
2023-05-23T00:39:19.970Z,15.61
2023-05-23T00:41:51.813Z,15.41
2023-05-23T00:44:22.768Z,15.31
2023-05-23T00:46:52.412Z,15.22
2023-05-23T00:49:22.589Z,15.16
2023-05-23T00:51:50.711Z,15.14
2023-05-23T00:54:31.344Z,15.07
2023-05-23T00:56:58.648Z,15.06
2023-05-23T00:59:27.268Z,15.08
2023-05-23T01:01:57.158Z,15.10
2023-05-23T01:04:26.870Z,15.12
2023-05-23T01:06:58.003Z,15.13
2023-05-23T01:09:28.760Z,15.13
2023-05-23T01:12:22.569Z,15.14
2023-05-23T01:15:11.574Z,15.12
2023-05-23T01:17:59.654Z,15.13
2023-05-23T01:20:36.456Z,15.17
2023-05-23T01:23:15.643Z,15.18
2023-05-23T01:25:59.531Z,15.20
2023-05-23T01:28:40.585Z,15.17
2023-05-23T01:31:11.177Z,15.11
2023-05-23T01:33:40.432Z,15.08
2023-05-23T01:36:08.297Z,15.13
2023-05-23T01:38:35.366Z,15.11
2023-05-23T01:41:02.410Z,15.10
2023-05-23T01:43:29.635Z,15.07
2023-05-23T01:45:57.857Z,15.03
2023-05-23T01:48:28.409Z,15.01
2023-05-23T01:50:57.420Z,15.04
2023-05-23T01:53:25.697Z,15.03
2023-05-23T01:55:53.258Z,14.99
2023-05-23T01:58:22.172Z,15.00
2023-05-23T02:00:49.370Z,14.94
2023-05-23T02:03:16.946Z,14.90
2023-05-23T02:05:44.320Z,14.89
2023-05-23T02:08:11.430Z,14.90
2023-05-23T02:10:38.647Z,14.85
2023-05-23T02:13:05.890Z,14.79
2023-05-23T02:15:32.899Z,14.83
2023-05-23T02:18:00.043Z,14.80
2023-05-23T02:20:27.057Z,14.82
2023-05-23T02:22:54.065Z,14.80
2023-05-23T02:25:21.106Z,14.80
2023-05-23T02:27:48.093Z,14.78
2023-05-23T02:30:15.288Z,14.76
2023-05-23T02:32:42.343Z,14.74
2023-05-23T02:35:10.714Z,14.69
2023-05-23T02:37:37.745Z,14.67
2023-05-23T02:40:07.776Z,14.71
2023-05-23T02:42:36.092Z,14.70
2023-05-23T02:45:03.415Z,14.70
2023-05-23T02:47:30.687Z,14.70
2023-05-23T02:49:57.845Z,14.67
2023-05-23T02:52:25.839Z,14.66
2023-05-23T02:54:53.403Z,14.65
2023-05-23T02:57:20.683Z,14.63
2023-05-23T02:59:47.724Z,14.61
2023-05-23T03:02:14.892Z,14.63
2023-05-23T03:04:42.201Z,14.65
2023-05-23T03:07:20.306Z,14.63
2023-05-23T03:09:51.665Z,14.57
2023-05-23T03:12:18.851Z,14.58
2023-05-23T03:14:45.960Z,14.57
2023-05-23T03:17:14.007Z,14.55
2023-05-23T03:19:41.279Z,14.60
2023-05-23T03:22:08.419Z,14.66
2023-05-23T03:24:35.858Z,14.68
2023-05-23T03:27:03.367Z,14.69
2023-05-23T03:29:30.518Z,14.68
2023-05-23T03:31:57.929Z,14.75
2023-05-23T03:34:26.854Z,14.75
2023-05-23T03:36:54.008Z,14.82
2023-05-23T03:39:21.239Z,14.86
2023-05-23T03:41:48.384Z,14.87
2023-05-23T03:44:16.400Z,14.85
2023-05-23T03:46:43.532Z,14.93
2023-05-23T03:49:11.092Z,14.96
2023-05-23T03:51:38.155Z,14.99
2023-05-23T03:54:05.352Z,14.99
2023-05-23T03:56:32.917Z,15.04
2023-05-23T03:59:00.318Z,15.16
2023-05-23T04:01:28.076Z,15.21
2023-05-23T04:03:55.397Z,15.27
2023-05-23T04:06:24.800Z,15.33
2023-05-23T04:08:52.001Z,15.39
2023-05-23T04:11:19.210Z,15.42
2023-05-23T04:13:47.352Z,15.46
2023-05-23T04:16:14.811Z,15.49
2023-05-23T04:18:43.729Z,15.55
2023-05-23T04:21:10.902Z,15.56
2023-05-23T04:23:44.699Z,15.58
2023-05-23T04:26:11.864Z,15.61
2023-05-23T04:28:46.452Z,15.65
2023-05-23T04:31:13.995Z,15.72
2023-05-23T04:33:42.091Z,15.78
2023-05-23T04:36:09.889Z,15.81
2023-05-23T04:38:42.521Z,15.83
2023-05-23T04:41:12.631Z,15.91
2023-05-23T04:43:43.010Z,15.92
2023-05-23T04:46:27.841Z,16.05
2023-05-23T04:49:17.412Z,16.07
2023-05-23T04:51:44.651Z,16.16
2023-05-23T04:54:19.309Z,16.29
2023-05-23T04:56:46.559Z,16.37
2023-05-23T04:59:15.224Z,16.46
2023-05-23T05:01:42.372Z,16.54
2023-05-23T05:04:10.077Z,16.60
2023-05-23T05:06:37.271Z,16.65
2023-05-23T05:09:04.358Z,16.72
2023-05-23T05:11:31.397Z,16.73
2023-05-23T05:13:59.290Z,16.81
2023-05-23T05:16:26.563Z,16.83
2023-05-23T05:18:53.742Z,16.88
2023-05-23T05:21:22.053Z,16.93
2023-05-23T05:23:49.392Z,16.94
2023-05-23T05:26:17.743Z,16.99
2023-05-23T05:28:44.836Z,17.03
2023-05-23T05:31:15.580Z,17.09
2023-05-23T05:33:46.176Z,17.13
2023-05-23T05:36:15.224Z,17.15
2023-05-23T05:38:43.427Z,17.22
2023-05-23T05:41:10.697Z,17.34
2023-05-23T05:43:42.342Z,17.46
2023-05-23T05:46:09.348Z,17.51
2023-05-23T05:48:36.639Z,17.64
2023-05-23T05:51:07.640Z,17.71
2023-05-23T05:53:35.298Z,17.80
2023-05-23T05:56:03.538Z,17.89
2023-05-23T05:58:32.340Z,17.99
2023-05-23T06:01:06.398Z,18.10
2023-05-23T06:03:34.344Z,18.17
2023-05-23T06:06:01.610Z,18.25
2023-05-23T06:08:28.848Z,18.36
2023-05-23T06:10:57.021Z,18.48
2023-05-23T06:13:25.688Z,18.67
2023-05-23T06:15:54.201Z,18.87
2023-05-23T06:18:21.970Z,18.98
2023-05-23T06:20:50.977Z,19.12
2023-05-23T06:23:19.895Z,19.13
2023-05-23T06:25:47.694Z,19.23
2023-05-23T06:28:14.789Z,19.31
2023-05-23T06:30:42.162Z,19.34
2023-05-23T06:33:09.617Z,19.37
2023-05-23T06:35:36.757Z,19.39
2023-05-23T06:38:03.781Z,19.42
2023-05-23T06:40:30.989Z,19.42
2023-05-23T06:42:58.568Z,19.44
2023-05-23T06:45:49.084Z,19.48
2023-05-23T06:48:16.158Z,19.53
2023-05-23T06:50:44.201Z,19.59
2023-05-23T06:53:12.215Z,19.67
2023-05-23T06:55:40.704Z,19.71
2023-05-23T06:58:09.803Z,19.72
2023-05-23T07:00:38.481Z,19.75
2023-05-23T07:03:25.873Z,19.86
2023-05-23T07:05:54.650Z,19.98
2023-05-23T07:08:23.235Z,20.04
2023-05-23T07:11:00.190Z,20.14
2023-05-23T07:13:33.891Z,20.17
2023-05-23T07:16:01.688Z,20.22
2023-05-23T07:18:29.176Z,20.19
2023-05-23T07:20:57.768Z,20.15
2023-05-23T07:23:26.002Z,20.18
2023-05-23T07:26:01.785Z,20.26
2023-05-23T07:28:36.600Z,20.37
2023-05-23T07:31:03.866Z,20.52
2023-05-23T07:33:33.788Z,20.52
2023-05-23T07:36:04.481Z,20.49
2023-05-23T07:38:31.641Z,20.43
2023-05-23T07:41:10.491Z,20.51
2023-05-23T07:43:40.137Z,20.68
2023-05-23T07:46:07.678Z,20.91
2023-05-23T07:48:35.534Z,21.08
2023-05-23T07:51:04.157Z,21.24
2023-05-23T07:53:31.720Z,21.33
2023-05-23T07:55:59.190Z,21.40
2023-05-23T07:58:31.455Z,21.41
2023-05-23T08:00:59.923Z,21.44
2023-05-23T08:03:47.399Z,21.48
2023-05-23T08:06:21.436Z,21.71
2023-05-23T08:08:49.176Z,21.87
2023-05-23T08:11:16.548Z,21.89
2023-05-23T08:13:48.663Z,21.95
2023-05-23T08:16:39.197Z,21.99
2023-05-23T08:19:14.669Z,22.03
2023-05-23T08:21:42.687Z,22.00
2023-05-23T08:24:09.846Z,21.94
2023-05-23T08:26:39.123Z,21.91
2023-05-23T08:29:10.737Z,21.94
2023-05-23T08:31:38.123Z,21.99
2023-05-23T08:34:07.441Z,22.13
2023-05-23T08:36:36.942Z,22.35
2023-05-23T08:39:06.329Z,22.62
2023-05-23T08:41:37.711Z,22.76
2023-05-23T08:44:09.580Z,22.85
2023-05-23T08:46:46.606Z,22.91
2023-05-23T08:49:22.938Z,22.96
2023-05-23T08:51:54.596Z,23.11
2023-05-23T08:54:22.535Z,23.16
2023-05-23T08:56:52.364Z,23.25
2023-05-23T08:59:21.116Z,23.26
2023-05-23T09:01:50.944Z,23.21
2023-05-23T09:04:18.563Z,23.16
2023-05-23T09:06:54.255Z,23.19
2023-05-23T09:09:21.399Z,23.30
2023-05-23T09:11:49.806Z,23.49
2023-05-23T09:14:18.391Z,23.66
2023-05-23T09:16:49.447Z,23.94
2023-05-23T09:19:20.391Z,24.16
2023-05-23T09:21:56.060Z,24.27
2023-05-23T09:24:37.674Z,24.39
2023-05-23T09:27:08.701Z,24.59
2023-05-23T09:29:42.226Z,24.71
2023-05-23T09:32:14.039Z,24.77
2023-05-23T09:34:47.897Z,24.86
2023-05-23T09:37:19.606Z,24.96
2023-05-23T09:39:48.848Z,24.94
2023-05-23T09:42:22.217Z,25.01
2023-05-23T09:44:50.399Z,25.08
2023-05-23T09:47:18.066Z,25.17
2023-05-23T09:49:47.095Z,25.16
2023-05-23T09:52:14.577Z,25.26
2023-05-23T09:54:41.624Z,25.38
2023-05-23T09:57:11.450Z,25.50
2023-05-23T09:59:45.732Z,25.72
2023-05-23T10:02:13.745Z,25.89
2023-05-23T10:04:43.099Z,25.94
2023-05-23T10:07:16.101Z,26.10
2023-05-23T10:09:48.330Z,26.19
2023-05-23T10:12:42.404Z,26.22
2023-05-23T10:15:11.740Z,26.20
2023-05-23T10:18:00.883Z,26.12
2023-05-23T10:20:34.238Z,26.20
2023-05-23T10:23:02.770Z,26.23
2023-05-23T10:25:29.977Z,26.25
2023-05-23T10:28:04.313Z,26.33
2023-05-23T10:30:32.161Z,26.25
2023-05-23T10:32:59.923Z,26.07
2023-05-23T10:35:30.662Z,25.93
2023-05-23T10:38:16.964Z,25.79
2023-05-23T10:41:02.780Z,25.45
2023-05-23T10:44:02.881Z,25.27
2023-05-23T10:46:48.708Z,25.11
2023-05-23T10:49:15.809Z,25.01
2023-05-23T10:51:42.851Z,24.98
2023-05-23T10:54:12.755Z,25.02
2023-05-23T10:56:39.823Z,25.09
2023-05-23T10:59:07.035Z,25.18
2023-05-23T11:01:39.736Z,25.11
2023-05-23T11:04:07.821Z,25.11
2023-05-23T11:06:45.519Z,25.11
2023-05-23T11:09:20.483Z,25.08
2023-05-23T11:12:01.083Z,25.02
2023-05-23T11:14:33.965Z,24.91
2023-05-23T11:17:13.157Z,24.70
2023-05-23T11:19:40.749Z,24.52
2023-05-23T11:22:11.178Z,24.31
2023-05-23T11:24:54.177Z,24.19
2023-05-23T11:27:40.327Z,23.97
2023-05-23T11:30:14.259Z,23.78
2023-05-23T11:32:43.358Z,23.66
2023-05-23T11:35:11.568Z,23.62
2023-05-23T11:37:39.805Z,23.58
2023-05-23T11:40:32.680Z,23.50
2023-05-23T11:43:01.343Z,23.41
2023-05-23T11:45:34.746Z,23.35
2023-05-23T11:48:13.056Z,23.22
2023-05-23T11:50:48.904Z,23.17
2023-05-23T11:53:20.949Z,23.11
2023-05-23T11:55:53.819Z,23.07
2023-05-23T11:58:23.131Z,22.90
2023-05-23T12:00:51.352Z,22.94
2023-05-23T12:03:19.622Z,22.88
2023-05-23T12:05:46.971Z,22.89
2023-05-23T12:08:15.249Z,22.92
2023-05-23T12:10:59.597Z,22.93
2023-05-23T12:13:29.574Z,22.94
2023-05-23T12:15:59.333Z,22.99
2023-05-23T12:18:31.646Z,23.01
2023-05-23T12:21:03.792Z,23.04
2023-05-23T12:23:33.814Z,23.06
2023-05-23T12:26:07.430Z,23.08
2023-05-23T12:28:43.742Z,23.11
2023-05-23T12:31:17.939Z,23.14
2023-05-23T12:33:48.359Z,23.23
2023-05-23T12:36:22.049Z,23.30
2023-05-23T12:38:49.374Z,23.44
2023-05-23T12:41:20.024Z,23.50
2023-05-23T12:43:55.084Z,23.53
2023-05-23T12:46:24.225Z,23.58
2023-05-23T12:48:51.482Z,23.50
2023-05-23T12:51:19.151Z,23.52
2023-05-23T12:53:46.239Z,23.53
2023-05-23T12:56:13.306Z,23.55
2023-05-23T12:58:40.417Z,23.61
2023-05-23T13:01:07.646Z,23.72
2023-05-23T13:03:35.127Z,23.88
2023-05-23T13:06:03.368Z,23.92
2023-05-23T13:08:30.446Z,23.87
2023-05-23T13:10:57.918Z,23.74
2023-05-23T13:13:25.124Z,23.64
2023-05-23T13:15:52.282Z,23.57
2023-05-23T13:18:19.906Z,23.51
2023-05-23T13:20:46.958Z,23.45
2023-05-23T13:23:14.196Z,23.40
2023-05-23T13:25:41.469Z,23.36
2023-05-23T13:28:08.846Z,23.35
2023-05-23T13:30:36.010Z,23.28
2023-05-23T13:33:03.404Z,23.32
2023-05-23T13:35:30.667Z,23.37
2023-05-23T13:37:57.770Z,23.44
2023-05-23T13:40:25.132Z,23.56
2023-05-23T13:42:52.637Z,23.59
2023-05-23T13:45:20.402Z,23.61
2023-05-23T13:47:47.646Z,23.56
2023-05-23T13:50:14.962Z,23.52
2023-05-23T13:52:45.639Z,23.51
2023-05-23T13:55:13.699Z,23.50
2023-05-23T13:57:40.694Z,23.47
2023-05-23T14:00:09.038Z,23.42
2023-05-23T14:02:36.244Z,23.39
2023-05-23T14:05:04.121Z,23.35
2023-05-23T14:07:31.765Z,23.35
2023-05-23T14:09:59.937Z,23.31
2023-05-23T14:12:27.507Z,23.34
2023-05-23T14:14:54.539Z,23.34
2023-05-23T14:17:21.738Z,23.32
2023-05-23T14:19:48.889Z,23.36
2023-05-23T14:22:15.996Z,23.37
2023-05-23T14:24:43.121Z,23.37
2023-05-23T14:27:11.432Z,23.34
2023-05-23T14:29:39.255Z,23.36
2023-05-23T14:32:06.705Z,23.33
2023-05-23T14:34:34.068Z,23.29
2023-05-23T14:37:01.415Z,23.28
2023-05-23T14:39:29.327Z,23.23
2023-05-23T14:41:56.746Z,23.23
2023-05-23T14:44:24.075Z,23.18
2023-05-23T14:46:51.297Z,23.16
2023-05-23T14:49:18.377Z,23.16
2023-05-23T14:51:50.755Z,23.18
2023-05-23T14:54:19.163Z,23.19
2023-05-23T14:56:46.663Z,23.23
2023-05-23T14:59:14.009Z,23.23
2023-05-23T15:01:41.291Z,23.24
2023-05-23T15:04:11.792Z,23.24
2023-05-23T15:06:39.666Z,23.23
2023-05-23T15:09:07.799Z,23.22
2023-05-23T15:11:42.584Z,23.19
2023-05-23T15:14:09.761Z,23.13
2023-05-23T15:16:37.578Z,23.11
2023-05-23T15:19:06.019Z,23.08
2023-05-23T15:21:33.184Z,23.04
2023-05-23T15:24:00.395Z,23.01
2023-05-23T15:26:27.681Z,22.97
2023-05-23T15:28:55.227Z,22.93
2023-05-23T15:31:23.316Z,22.70
2023-05-23T15:33:50.570Z,22.42
2023-05-23T15:36:17.714Z,22.22
2023-05-23T15:38:44.980Z,22.00
2023-05-23T15:41:12.222Z,21.80
2023-05-23T15:43:39.375Z,21.66
2023-05-23T15:46:06.441Z,21.54
2023-05-23T15:48:33.672Z,21.46
2023-05-23T15:51:00.768Z,21.41
2023-05-23T15:53:28.447Z,21.29
2023-05-23T15:55:56.856Z,21.19
2023-05-23T15:58:23.970Z,21.08
2023-05-23T16:00:51.168Z,20.96
2023-05-23T16:03:18.794Z,20.89
2023-05-23T16:05:46.412Z,20.84
2023-05-23T16:08:13.568Z,20.75
2023-05-23T16:10:40.788Z,20.71
2023-05-23T16:13:09.415Z,20.72
2023-05-23T16:15:36.664Z,20.61
2023-05-23T16:18:04.315Z,20.56
2023-05-23T16:20:31.401Z,20.54
2023-05-23T16:22:58.529Z,20.52
2023-05-23T16:25:25.598Z,20.50
2023-05-23T16:27:52.839Z,20.54
2023-05-23T16:30:20.403Z,20.56
2023-05-23T16:32:47.488Z,20.51
2023-05-23T16:35:14.603Z,20.48
2023-05-23T16:37:41.858Z,20.46
2023-05-23T16:40:09.327Z,20.41
2023-05-23T16:42:37.681Z,20.36
2023-05-23T16:45:05.504Z,20.34
2023-05-23T16:47:32.607Z,20.30
2023-05-23T16:49:59.622Z,20.25
2023-05-23T16:52:26.758Z,20.21
2023-05-23T16:54:55.918Z,20.11
2023-05-23T16:57:23.173Z,20.13
2023-05-23T16:59:50.309Z,20.11
2023-05-23T17:02:17.665Z,20.07
2023-05-23T17:04:45.143Z,20.09
2023-05-23T17:07:12.268Z,20.06
2023-05-23T17:09:39.415Z,19.96
2023-05-23T17:12:06.972Z,19.92
2023-05-23T17:14:34.619Z,19.89
2023-05-23T17:17:03.533Z,19.83
2023-05-23T17:19:30.755Z,19.86
2023-05-23T17:21:59.228Z,19.84
2023-05-23T17:24:26.338Z,19.83
2023-05-23T17:26:53.381Z,19.78
2023-05-23T17:29:20.609Z,19.76
2023-05-23T17:31:47.902Z,19.78
2023-05-23T17:34:15.014Z,19.77
2023-05-23T17:36:42.187Z,19.73
2023-05-23T17:39:09.929Z,19.74
2023-05-23T17:41:36.896Z,19.65
2023-05-23T17:44:04.023Z,19.66
2023-05-23T17:46:31.198Z,19.62
2023-05-23T17:48:58.287Z,19.59
2023-05-23T17:51:25.441Z,19.57
2023-05-23T17:53:53.964Z,19.58
2023-05-23T17:56:23.620Z,19.54
2023-05-23T17:58:51.619Z,19.51
2023-05-23T18:01:18.819Z,19.55
2023-05-23T18:03:45.921Z,19.52
2023-05-23T18:06:13.088Z,19.49
2023-05-23T18:08:41.518Z,19.45
2023-05-23T18:11:09.015Z,19.43
2023-05-23T18:13:36.165Z,19.42
2023-05-23T18:16:03.287Z,19.43
2023-05-23T18:18:30.506Z,19.42
2023-05-23T18:20:57.629Z,19.40
2023-05-23T18:23:24.807Z,19.38
2023-05-23T18:25:52.137Z,19.29
2023-05-23T18:28:19.252Z,19.34
2023-05-23T18:30:46.300Z,19.30
2023-05-23T18:33:13.563Z,19.34
2023-05-23T18:35:40.923Z,19.32
2023-05-23T18:38:08.163Z,19.30
2023-05-23T18:40:35.117Z,19.27
2023-05-23T18:43:02.249Z,19.22
2023-05-23T18:45:29.315Z,19.24
2023-05-23T18:47:56.604Z,19.22
2023-05-23T18:50:23.937Z,19.20
2023-05-23T18:52:50.928Z,19.17
2023-05-23T18:55:18.029Z,19.11
2023-05-23T18:57:45.130Z,19.14
2023-05-23T19:00:13.321Z,19.15
2023-05-23T19:02:44.641Z,19.06
2023-05-23T19:05:12.842Z,19.09
2023-05-23T19:07:40.264Z,19.09
2023-05-23T19:10:07.790Z,19.12
2023-05-23T19:12:34.891Z,19.08
2023-05-23T19:15:02.087Z,19.10
2023-05-23T19:17:29.190Z,19.09
2023-05-23T19:19:56.285Z,19.03
2023-05-23T19:22:23.346Z,19.03
2023-05-23T19:24:50.448Z,18.98
2023-05-23T19:27:17.650Z,19.01
2023-05-23T19:29:45.623Z,18.93
2023-05-23T19:32:12.824Z,18.97
2023-05-23T19:34:40.166Z,18.97
2023-05-23T19:37:07.276Z,18.94
2023-05-23T19:39:34.427Z,18.92
2023-05-23T19:42:01.549Z,18.92
2023-05-23T19:44:28.693Z,18.92
2023-05-23T19:46:55.888Z,18.86
2023-05-23T19:49:23.167Z,18.90
2023-05-23T19:51:50.234Z,18.88
2023-05-23T19:54:17.933Z,18.85
2023-05-23T19:56:45.763Z,18.80
2023-05-23T19:59:13.848Z,18.74
2023-05-23T20:01:40.982Z,18.67
2023-05-23T20:04:10.345Z,18.67
2023-05-23T20:06:39.122Z,18.64
2023-05-23T20:09:06.376Z,18.59
2023-05-23T20:11:35.175Z,18.59
2023-05-23T20:14:02.455Z,18.57
2023-05-23T20:16:29.829Z,18.59
2023-05-23T20:18:57.172Z,18.56
2023-05-23T20:21:24.429Z,18.53
2023-05-23T20:23:51.631Z,18.51
2023-05-23T20:26:18.896Z,18.50
2023-05-23T20:28:46.034Z,18.47
2023-05-23T20:31:13.311Z,18.51
2023-05-23T20:33:40.509Z,18.50
2023-05-23T20:36:07.938Z,18.49
2023-05-23T20:38:35.541Z,18.45
2023-05-23T20:41:08.958Z,18.44
2023-05-23T20:43:37.978Z,18.38
2023-05-23T20:46:10.193Z,18.38
2023-05-23T20:48:37.710Z,18.35
2023-05-23T20:51:06.127Z,18.35
2023-05-23T20:53:34.411Z,18.35
2023-05-23T20:56:02.884Z,18.34
2023-05-23T20:58:30.050Z,18.32
2023-05-23T21:00:57.900Z,18.29
2023-05-23T21:03:25.159Z,18.28
2023-05-23T21:05:52.373Z,18.25
2023-05-23T21:08:19.793Z,18.20
2023-05-23T21:10:50.682Z,18.22
2023-05-23T21:13:19.720Z,18.22
2023-05-23T21:15:46.858Z,18.21
2023-05-23T21:18:14.010Z,18.21
2023-05-23T21:20:41.706Z,18.20
2023-05-23T21:23:08.998Z,18.20
2023-05-23T21:25:36.295Z,18.12
2023-05-23T21:28:03.596Z,18.12
2023-05-23T21:30:30.810Z,18.05
2023-05-23T21:32:58.103Z,18.07
2023-05-23T21:35:25.318Z,18.09
2023-05-23T21:37:52.777Z,18.08
2023-05-23T21:40:20.026Z,18.09
2023-05-23T21:42:47.218Z,18.05
2023-05-23T21:45:14.308Z,18.01
2023-05-23T21:47:41.383Z,18.03
2023-05-23T21:50:08.919Z,18.04
2023-05-23T21:52:36.078Z,17.95
2023-05-23T21:55:03.448Z,17.99
2023-05-23T21:57:30.701Z,17.95
2023-05-23T21:59:57.718Z,18.01
2023-05-23T22:02:24.830Z,18.01
2023-05-23T22:04:52.011Z,18.01
2023-05-23T22:07:20.164Z,18.01
2023-05-23T22:09:47.288Z,17.99
2023-05-23T22:12:14.461Z,17.96
2023-05-23T22:14:41.644Z,17.95
2023-05-23T22:17:10.206Z,17.92
2023-05-23T22:19:37.705Z,17.93
2023-05-23T22:22:05.007Z,17.90
2023-05-23T22:24:32.142Z,17.85
2023-05-23T22:27:00.926Z,17.84
2023-05-23T22:29:27.957Z,17.82
2023-05-23T22:31:55.116Z,17.79
2023-05-23T22:34:22.359Z,17.71
2023-05-23T22:36:49.459Z,17.73
2023-05-23T22:39:17.200Z,17.69
2023-05-23T22:41:44.252Z,17.66
2023-05-23T22:44:12.084Z,17.65
2023-05-23T22:46:39.756Z,17.62
2023-05-23T22:49:06.834Z,17.60
2023-05-23T22:51:34.301Z,17.62
2023-05-23T22:54:01.894Z,17.61
2023-05-23T22:56:28.977Z,17.57
2023-05-23T22:58:56.184Z,17.55
2023-05-23T23:01:23.260Z,17.51
2023-05-23T23:03:50.292Z,17.50
2023-05-23T23:06:17.436Z,17.47
2023-05-23T23:08:47.413Z,17.46
2023-05-23T23:11:14.532Z,17.43
2023-05-23T23:13:41.554Z,17.46
2023-05-23T23:16:08.836Z,17.43
2023-05-23T23:18:35.839Z,17.47
2023-05-23T23:21:02.937Z,17.49
2023-05-23T23:23:30.123Z,17.49
2023-05-23T23:25:57.130Z,17.46
2023-05-23T23:28:24.137Z,17.43
2023-05-23T23:30:51.127Z,17.36
2023-05-23T23:33:18.159Z,17.33
2023-05-23T23:35:48.672Z,17.28
2023-05-23T23:38:16.567Z,17.27
2023-05-23T23:40:46.842Z,17.28
2023-05-23T23:43:13.992Z,17.25
2023-05-23T23:45:41.105Z,17.26
2023-05-23T23:48:08.203Z,17.32
2023-05-23T23:50:35.416Z,17.31
2023-05-23T23:53:02.563Z,17.31
2023-05-23T23:55:29.607Z,17.23
2023-05-23T23:57:56.719Z,17.26
